createdAt,value
2019-03-19T00:02:34.935Z,13.77
2019-03-19T00:05:11.832Z,11.97
2019-03-19T00:07:40.909Z,13.63
2019-03-19T00:10:17.177Z,8.60
2019-03-19T00:12:46.071Z,19.40
2019-03-19T00:15:15.366Z,11.77
2019-03-19T00:17:50.771Z,13.67
2019-03-19T00:20:19.908Z,8.83
2019-03-19T00:22:55.967Z,16.47
2019-03-19T00:25:30.071Z,12.33
2019-03-19T00:27:55.619Z,12.83
2019-03-19T00:30:31.244Z,14.37
2019-03-19T00:33:00.339Z,9.90
2019-03-19T00:35:36.914Z,9.80
2019-03-19T00:38:05.916Z,11.67
2019-03-19T00:40:41.283Z,10.03
2019-03-19T00:43:17.006Z,12.47
2019-03-19T00:45:45.895Z,11.77
2019-03-19T00:48:21.548Z,11.70
2019-03-19T00:50:50.444Z,14.23
2019-03-19T00:53:26.082Z,13.83
2019-03-19T00:55:54.974Z,14.37
2019-03-19T00:58:23.867Z,13.10
2019-03-19T01:00:59.311Z,8.97
2019-03-19T01:03:34.764Z,13.20
2019-03-19T01:06:11.433Z,6.73
2019-03-19T01:08:40.325Z,10.37
2019-03-19T01:11:09.204Z,12.87
2019-03-19T01:13:45.069Z,10.97
2019-03-19T01:16:14.165Z,14.23
2019-03-19T01:18:50.124Z,10.97
2019-03-19T01:21:19.118Z,11.40
2019-03-19T01:23:48.212Z,11.30
2019-03-19T01:26:23.867Z,11.00
2019-03-19T01:28:52.650Z,14.03
2019-03-19T01:31:27.993Z,11.00
2019-03-19T01:33:56.867Z,16.30
2019-03-19T01:36:25.983Z,11.00
2019-03-19T01:39:01.224Z,12.77
2019-03-19T01:41:30.112Z,12.13
2019-03-19T01:44:13.028Z,12.47
2019-03-19T01:46:41.913Z,15.07
2019-03-19T01:49:10.719Z,11.33
2019-03-19T01:51:46.979Z,10.47
2019-03-19T01:54:15.872Z,14.87
2019-03-19T01:56:51.317Z,9.87
2019-03-19T01:59:20.203Z,11.30
2019-03-19T02:01:55.243Z,12.00
2019-03-19T02:04:37.617Z,10.03
2019-03-19T02:07:06.543Z,16.83
2019-03-19T02:09:42.408Z,15.73
2019-03-19T02:12:11.289Z,9.17
2019-03-19T02:14:40.122Z,9.67
2019-03-19T02:17:16.041Z,13.67
2019-03-19T02:19:44.927Z,11.50
2019-03-19T02:22:20.993Z,11.40
2019-03-19T02:24:49.829Z,13.63
2019-03-19T02:27:18.771Z,12.30
2019-03-19T02:29:54.105Z,13.70
2019-03-19T02:32:22.948Z,10.73
2019-03-19T02:34:59.074Z,14.23
2019-03-19T02:37:27.967Z,13.40
2019-03-19T02:39:56.715Z,14.67
2019-03-19T02:42:33.012Z,19.50
2019-03-19T02:45:10.657Z,13.93
2019-03-19T02:47:45.896Z,14.60
2019-03-19T02:50:15.940Z,13.97
2019-03-19T02:52:45.325Z,19.77
2019-03-19T02:55:20.814Z,12.53
2019-03-19T02:57:49.760Z,13.33
2019-03-19T03:00:26.279Z,14.53
2019-03-19T03:03:01.567Z,9.47
2019-03-19T03:05:44.217Z,16.37
2019-03-19T03:08:13.126Z,10.77
2019-03-19T03:10:41.899Z,13.50
2019-03-19T03:13:17.371Z,22.67
2019-03-19T03:15:46.173Z,14.37
2019-03-19T03:18:21.673Z,12.30
2019-03-19T03:20:50.699Z,11.07
2019-03-19T03:23:19.503Z,13.60
2019-03-19T03:25:55.230Z,15.93
2019-03-19T03:28:24.329Z,13.60
2019-03-19T03:31:00.592Z,15.07
2019-03-19T03:33:29.484Z,8.60
2019-03-19T03:36:04.723Z,12.60
2019-03-19T03:38:33.618Z,14.00
2019-03-19T03:41:02.631Z,15.47
2019-03-19T03:43:38.565Z,12.97
2019-03-19T03:46:14.257Z,14.37
2019-03-19T03:48:50.486Z,10.60
2019-03-19T03:51:19.477Z,18.27
2019-03-19T03:53:48.469Z,16.07
2019-03-19T03:56:23.883Z,11.77
2019-03-19T03:59:00.348Z,15.17
2019-03-19T04:01:30.470Z,11.40
2019-03-19T04:04:06.125Z,13.90
2019-03-19T04:06:48.787Z,12.00
2019-03-19T04:09:17.620Z,12.93
2019-03-19T04:11:46.773Z,12.33
2019-03-19T04:14:22.982Z,16.87
2019-03-19T04:16:52.025Z,13.87
2019-03-19T04:19:26.903Z,14.37
2019-03-19T04:21:56.044Z,12.73
2019-03-19T04:24:24.937Z,16.47
2019-03-19T04:27:14.681Z,17.77
2019-03-19T04:29:57.327Z,10.77
2019-03-19T04:32:39.747Z,16.33
2019-03-19T04:35:08.839Z,14.83
2019-03-19T04:37:38.134Z,11.40
2019-03-19T04:40:17.085Z,12.80
2019-03-19T04:42:46.165Z,20.07
2019-03-19T04:45:22.630Z,16.50
2019-03-19T04:47:58.482Z,14.43
2019-03-19T04:50:35.047Z,14.43
2019-03-19T04:53:04.586Z,15.63
2019-03-19T04:55:33.559Z,16.27
2019-03-19T04:58:09.211Z,19.13
2019-03-19T05:00:38.207Z,16.90
2019-03-19T05:03:13.748Z,16.47
2019-03-19T05:05:42.848Z,18.90
2019-03-19T05:08:12.149Z,15.60
2019-03-19T05:10:47.648Z,13.87
2019-03-19T05:13:16.391Z,17.67
2019-03-19T05:15:51.615Z,18.97
2019-03-19T05:18:20.515Z,18.73
2019-03-19T05:20:49.707Z,20.37
2019-03-19T05:23:25.178Z,17.43
2019-03-19T05:25:54.050Z,18.97
2019-03-19T05:28:29.902Z,13.43
2019-03-19T05:31:08.726Z,14.87
2019-03-19T05:33:51.340Z,17.20
2019-03-19T05:36:20.329Z,16.90
2019-03-19T05:38:49.225Z,15.90
2019-03-19T05:41:24.492Z,15.97
2019-03-19T05:43:53.355Z,14.63
2019-03-19T05:46:29.370Z,19.33
2019-03-19T05:49:05.090Z,16.37
2019-03-19T05:51:40.617Z,17.30
2019-03-19T05:54:09.504Z,19.43
2019-03-19T05:56:38.497Z,14.90
2019-03-19T05:59:13.550Z,9.60
2019-03-19T06:01:42.424Z,16.03
2019-03-19T06:04:17.771Z,10.80
2019-03-19T06:06:47.269Z,13.70
2019-03-19T06:09:16.266Z,17.67
2019-03-19T06:11:51.527Z,19.60
2019-03-19T06:14:20.367Z,11.47
2019-03-19T06:16:55.738Z,11.20
2019-03-19T06:19:24.470Z,11.57
2019-03-19T06:21:53.295Z,15.90
2019-03-19T06:24:29.340Z,12.67
2019-03-19T06:26:58.076Z,14.70
2019-03-19T06:29:33.916Z,15.77
2019-03-19T06:32:09.159Z,13.30
2019-03-19T06:34:51.324Z,14.17
2019-03-19T06:37:20.157Z,14.07
2019-03-19T06:39:50.833Z,13.87
2019-03-19T06:42:26.158Z,17.13
2019-03-19T06:44:55.037Z,17.00
2019-03-19T06:47:30.355Z,16.60
2019-03-19T06:49:59.048Z,16.73
2019-03-19T06:52:27.843Z,11.40
2019-03-19T06:55:05.034Z,13.60
2019-03-19T06:57:39.193Z,15.57
2019-03-19T07:00:14.187Z,12.80
2019-03-19T07:02:42.947Z,16.57
2019-03-19T07:05:11.886Z,13.17
2019-03-19T07:07:48.324Z,13.40
2019-03-19T07:10:18.295Z,21.63
2019-03-19T07:12:54.206Z,16.80
2019-03-19T07:15:24.744Z,14.17
2019-03-19T07:17:53.625Z,16.03
2019-03-19T07:20:36.493Z,18.63
2019-03-19T07:23:05.639Z,21.07
2019-03-19T07:25:41.686Z,11.87
2019-03-19T07:28:21.447Z,17.83
2019-03-19T07:30:41.227Z,13.30
2019-03-19T07:33:16.979Z,16.70
2019-03-19T07:35:59.722Z,14.00
2019-03-19T07:38:35.753Z,12.73
2019-03-19T07:41:04.578Z,16.50
2019-03-19T07:43:33.420Z,17.00
2019-03-19T07:46:09.106Z,15.70
2019-03-19T07:48:37.887Z,13.37
2019-03-19T07:51:12.636Z,15.23
2019-03-19T07:53:41.589Z,15.57
2019-03-19T07:56:10.724Z,13.50
2019-03-19T07:58:45.864Z,10.73
2019-03-19T08:01:14.808Z,13.67
2019-03-19T08:03:50.057Z,16.33
2019-03-19T08:06:18.767Z,13.27
2019-03-19T08:08:47.587Z,9.73
2019-03-19T08:11:22.763Z,15.50
2019-03-19T08:13:51.736Z,11.83
2019-03-19T08:16:27.816Z,12.27
2019-03-19T08:18:56.847Z,14.90
2019-03-19T08:21:25.940Z,17.53
2019-03-19T08:24:01.464Z,12.93
2019-03-19T08:26:30.377Z,9.17
2019-03-19T08:29:06.209Z,11.27
2019-03-19T08:31:35.212Z,10.27
2019-03-19T08:34:24.848Z,10.13
2019-03-19T08:36:53.779Z,10.83
2019-03-19T08:39:22.591Z,9.17
2019-03-19T08:41:59.137Z,12.10
2019-03-19T08:44:28.180Z,12.97
2019-03-19T08:47:03.500Z,12.07
2019-03-19T08:49:32.274Z,11.80
2019-03-19T08:52:01.378Z,10.10
2019-03-19T08:54:37.205Z,14.10
2019-03-19T08:57:06.094Z,12.20
2019-03-19T08:59:40.993Z,11.10
2019-03-19T09:02:09.707Z,16.13
2019-03-19T09:04:38.468Z,14.00
2019-03-19T09:07:14.171Z,11.97
2019-03-19T09:09:42.952Z,10.83
2019-03-19T09:12:18.921Z,12.60
2019-03-19T09:14:47.902Z,9.07
2019-03-19T09:17:16.877Z,11.33
2019-03-19T09:19:52.483Z,10.50
2019-03-19T09:22:22.872Z,9.03
2019-03-19T09:24:58.178Z,10.27
2019-03-19T09:27:27.203Z,10.80
2019-03-19T09:29:57.281Z,12.03
2019-03-19T09:32:32.975Z,8.10
2019-03-19T09:35:08.700Z,7.90
2019-03-19T09:37:44.158Z,6.63
2019-03-19T09:40:25.879Z,10.17
2019-03-19T09:42:54.719Z,10.07
2019-03-19T09:45:24.066Z,7.10
2019-03-19T09:47:59.812Z,12.37
2019-03-19T09:50:28.909Z,9.43
2019-03-19T09:53:18.866Z,9.30
2019-03-19T09:55:54.549Z,8.90
2019-03-19T09:58:30.288Z,8.10
2019-03-19T10:00:59.186Z,9.60
2019-03-19T10:03:27.996Z,10.97
2019-03-19T10:06:13.676Z,8.47
2019-03-19T10:08:33.862Z,11.77
2019-03-19T10:11:03.051Z,9.10
2019-03-19T10:13:38.095Z,7.97
2019-03-19T10:16:07.759Z,13.70
2019-03-19T10:18:37.104Z,8.37
2019-03-19T10:21:12.354Z,9.10
2019-03-19T10:23:41.487Z,8.77
2019-03-19T10:26:23.884Z,10.67
2019-03-19T10:28:53.149Z,10.47
2019-03-19T10:31:22.887Z,8.87
2019-03-19T10:33:58.563Z,8.83
2019-03-19T10:36:34.135Z,12.57
2019-03-19T10:39:10.460Z,12.00
2019-03-19T10:41:39.371Z,8.30
2019-03-19T10:44:08.159Z,10.40
2019-03-19T10:46:43.591Z,8.20
2019-03-19T10:49:12.345Z,8.20
2019-03-19T10:51:41.177Z,12.63
2019-03-19T10:54:17.280Z,11.80
2019-03-19T10:56:47.641Z,5.20
2019-03-19T10:59:16.595Z,8.53
2019-03-19T11:01:53.039Z,6.60
2019-03-19T11:04:21.720Z,6.70
2019-03-19T11:06:50.762Z,7.60
2019-03-19T11:09:26.265Z,8.00
2019-03-19T11:11:55.296Z,6.43
2019-03-19T11:14:24.184Z,5.93
2019-03-19T11:17:00.287Z,7.87
2019-03-19T11:19:29.052Z,8.40
2019-03-19T11:21:57.795Z,10.63
2019-03-19T11:24:33.875Z,7.47
2019-03-19T11:27:02.648Z,7.97
2019-03-19T11:29:44.835Z,8.20
2019-03-19T11:32:13.605Z,6.00
2019-03-19T11:34:42.578Z,9.07
2019-03-19T11:37:18.035Z,9.60
2019-03-19T11:39:53.508Z,10.03
2019-03-19T11:42:29.062Z,8.70
2019-03-19T11:44:57.826Z,9.73
2019-03-19T11:47:26.831Z,11.10
2019-03-19T11:50:01.928Z,9.43
2019-03-19T11:52:30.761Z,6.33
2019-03-19T11:54:59.603Z,8.90
2019-03-19T11:57:34.768Z,11.13
2019-03-19T12:00:11.291Z,7.43
2019-03-19T12:02:35.816Z,9.17
2019-03-19T12:05:13.088Z,6.20
2019-03-19T12:07:41.951Z,7.47
2019-03-19T12:10:10.960Z,8.83
2019-03-19T12:12:46.577Z,9.20
2019-03-19T12:15:15.452Z,7.57
2019-03-19T12:17:44.440Z,5.67
2019-03-19T12:20:21.296Z,5.53
2019-03-19T12:22:50.183Z,10.17
2019-03-19T12:25:19.389Z,5.47
2019-03-19T12:27:55.129Z,4.73
2019-03-19T12:30:26.292Z,5.93
2019-03-19T12:33:08.895Z,7.33
2019-03-19T12:35:46.151Z,5.93
2019-03-19T12:38:28.349Z,7.37
2019-03-19T12:41:03.772Z,8.37
2019-03-19T12:43:32.611Z,7.43
2019-03-19T12:46:08.259Z,5.10
2019-03-19T12:48:37.147Z,5.97
2019-03-19T12:51:06.359Z,4.90
2019-03-19T12:53:41.688Z,6.50
2019-03-19T12:56:10.527Z,9.77
2019-03-19T12:58:39.556Z,6.37
2019-03-19T13:01:15.571Z,4.93
2019-03-19T13:03:44.834Z,7.67
2019-03-19T13:06:14.051Z,5.53
2019-03-19T13:08:49.246Z,8.97
2019-03-19T13:11:18.266Z,5.07
2019-03-19T13:13:49.821Z,5.93
2019-03-19T13:16:25.568Z,4.13
2019-03-19T13:18:54.569Z,5.67
2019-03-19T13:21:23.726Z,13.37
2019-03-19T13:23:59.687Z,8.43
2019-03-19T13:26:28.504Z,4.87
2019-03-19T13:28:57.523Z,6.77
2019-03-19T13:31:32.887Z,5.87
2019-03-19T13:34:08.092Z,7.43
2019-03-19T13:36:37.084Z,10.43
2019-03-19T13:39:14.122Z,5.60
2019-03-19T13:41:42.954Z,5.40
2019-03-19T13:44:14.098Z,4.47
2019-03-19T13:46:50.266Z,6.97
2019-03-19T13:49:19.200Z,6.80
2019-03-19T13:51:48.232Z,7.90
2019-03-19T13:54:23.696Z,7.97
2019-03-19T13:56:52.805Z,5.27
2019-03-19T13:59:22.095Z,5.27
2019-03-19T14:01:57.745Z,8.63
2019-03-19T14:04:26.600Z,6.77
2019-03-19T14:06:55.734Z,6.70
2019-03-19T14:09:31.178Z,5.37
2019-03-19T14:12:13.235Z,7.10
2019-03-19T14:14:43.974Z,5.53
2019-03-19T14:17:19.561Z,4.87
2019-03-19T14:19:55.619Z,9.00
2019-03-19T14:22:24.718Z,5.33
2019-03-19T14:24:53.491Z,7.03
2019-03-19T14:27:28.848Z,6.23
2019-03-19T14:29:57.668Z,5.63
2019-03-19T14:32:26.727Z,8.23
2019-03-19T14:35:02.183Z,6.23
2019-03-19T14:37:30.967Z,5.90
2019-03-19T14:40:00.064Z,6.77
2019-03-19T14:42:35.639Z,9.13
2019-03-19T14:45:06.962Z,5.93
2019-03-19T14:47:35.956Z,5.50
2019-03-19T14:50:17.741Z,6.93
2019-03-19T14:52:46.498Z,7.53
2019-03-19T14:55:15.325Z,5.27
2019-03-19T14:57:51.306Z,7.47
2019-03-19T15:00:23.772Z,11.30
2019-03-19T15:02:52.606Z,7.47
2019-03-19T15:05:28.564Z,7.30
2019-03-19T15:07:57.396Z,7.43
2019-03-19T15:10:26.386Z,6.80
2019-03-19T15:13:01.943Z,7.63
2019-03-19T15:15:37.589Z,6.73
2019-03-19T15:18:13.462Z,5.00
2019-03-19T15:20:49.707Z,6.70
2019-03-19T15:23:25.994Z,4.50
2019-03-19T15:25:55.070Z,7.50
2019-03-19T15:28:24.165Z,7.93
2019-03-19T15:31:01.171Z,8.50
2019-03-19T15:33:29.980Z,6.87
2019-03-19T15:36:33.141Z,5.50
2019-03-19T15:39:02.013Z,5.70
2019-03-19T15:41:30.925Z,8.73
2019-03-19T15:44:07.177Z,12.57
2019-03-19T15:46:36.029Z,5.93
2019-03-19T15:49:04.842Z,9.53
2019-03-19T15:51:40.525Z,6.53
2019-03-19T15:54:09.606Z,8.70
2019-03-19T15:56:38.624Z,10.07
2019-03-19T15:59:14.164Z,7.43
2019-03-19T16:01:43.452Z,6.93
2019-03-19T16:04:12.751Z,7.00
2019-03-19T16:06:48.718Z,6.97
2019-03-19T16:09:17.700Z,9.10
2019-03-19T16:11:47.007Z,5.00
2019-03-19T16:14:22.314Z,11.27
2019-03-19T16:16:57.878Z,6.50
2019-03-19T16:19:33.865Z,5.87
